Time;durP1;ratioP1;P1;durP2;ratioP2;P2;SDS_P1;SDS_P2;PMS_P1;PMS_P2;Temp;Humidity;BMP_temperature;BMP_pressure;BME280_temperature;BME280_humidity;BME280_pressure;Samples;Min_cycle;Max_cycle;Signal;HPM_P1;HPM_P2
2022/05/13 00:02:00;;;;;;;4.28;3.42;;;;;;;11.62;100.00;101620.78;4820201;29;20084;-76
2022/05/13 00:04:30;;;;;;;8.50;3.85;;;;;;;11.61;100.00;101614.63;4854485;29;20386;-75
2022/05/13 00:06:59;;;;;;;6.80;3.67;;;;;;;11.61;100.00;101619.91;4850849;29;20593;-76
2022/05/13 00:09:56;;;;;;;8.20;4.47;;;;;;;11.62;100.00;101613.75;4848881;29;20037;-75
2022/05/13 00:12:16;;;;;;;11.27;4.25;;;;;;;11.62;100.00;101619.03;4825652;29;20632;-76
2022/05/13 00:14:46;;;;;;;8.57;3.58;;;;;;;11.63;100.00;101614.66;4848910;29;20048;-76
2022/05/13 00:17:16;;;;;;;9.88;3.58;;;;;;;11.62;100.00;101608.47;4837030;29;20427;-76
2022/05/13 00:19:44;;;;;;;8.70;3.85;;;;;;;11.63;100.00;101604.97;4836312;29;20053;-76
2022/05/13 00:22:13;;;;;;;6.78;4.38;;;;;;;11.64;100.00;101605.84;4834557;29;20261;-75
2022/05/13 00:24:44;;;;;;;9.65;3.63;;;;;;;11.62;100.00;101605.81;4845078;29;20480;-77
2022/05/13 00:27:13;;;;;;;8.38;3.10;;;;;;;11.60;100.00;101594.38;4824131;29;20544;-75
2022/05/13 00:29:42;;;;;;;6.35;3.47;;;;;;;11.61;100.00;101600.56;4830632;29;20042;-75
2022/05/13 00:32:10;;;;;;;6.20;2.75;;;;;;;11.61;100.00;101601.44;4839545;29;20160;-76
2022/05/13 00:34:39;;;;;;;14.95;3.28;;;;;;;11.63;100.00;101599.69;4849723;29;20042;-76
2022/05/13 00:37:08;;;;;;;8.32;3.05;;;;;;;11.64;100.00;101595.28;4819169;29;20165;-76
2022/05/13 00:39:37;;;;;;;8.10;2.88;;;;;;;11.64;100.00;101588.25;4867893;29;20546;-76
2022/05/13 00:42:14;;;;;;;9.93;2.92;;;;;;;11.63;100.00;101604.97;4828917;29;20265;-76
2022/05/13 00:44:44;;;;;;;8.20;2.92;;;;;;;11.61;100.00;101585.59;4868372;29;20080;-76
2022/05/13 00:47:13;;;;;;;8.20;2.83;;;;;;;11.63;100.00;101585.63;4838454;29;20250;-76
2022/05/13 00:49:43;;;;;;;11.07;3.15;;;;;;;11.62;100.00;101582.06;4846022;29;20052;-76
2022/05/13 00:52:12;;;;;;;8.30;2.75;;;;;;;11.64;100.00;101585.59;4853292;29;20266;-76
2022/05/13 00:54:42;;;;;;;9.43;3.38;;;;;;;11.64;100.00;101582.09;4853452;29;20049;-76
2022/05/13 00:57:11;;;;;;;6.87;2.80;;;;;;;11.65;100.00;101582.13;4845622;29;20066;-76
2022/05/13 00:59:42;;;;;;;11.55;2.85;;;;;;;11.66;100.00;101581.25;4850815;29;20052;-75
2022/05/13 01:02:11;;;;;;;11.82;3.67;;;;;;;11.64;100.00;101574.16;4851422;29;20046;-78
2022/05/13 01:04:40;;;;;;;8.50;3.03;;;;;;;11.61;100.00;101572.41;4853241;29;20373;-77
2022/05/13 01:07:12;;;;;;;8.90;2.90;;;;;;;11.61;100.00;101574.16;4844867;29;20135;-78
2022/05/13 01:09:46;;;;;;;9.38;3.13;;;;;;;11.62;100.00;101576.78;4853380;29;20049;-78
2022/05/13 01:12:20;;;;;;;6.03;2.92;;;;;;;11.62;100.00;101566.22;4853825;29;20068;-77
2022/05/13 01:14:54;;;;;;;5.50;3.05;;;;;;;11.62;100.00;101566.22;4817324;29;20069;-78
2022/05/13 01:20:21;;;;;;;7.90;2.83;;;;;;;11.63;100.00;101572.41;4846277;29;20517;-77
2022/05/13 01:22:54;;;;;;;12.57;3.40;;;;;;;11.63;100.00;101567.13;4852162;29;20052;-77
2022/05/13 01:25:26;;;;;;;8.23;2.80;;;;;;;11.63;100.00;101562.72;4852382;29;20062;-78
2022/05/13 01:28:04;;;;;;;6.90;2.88;;;;;;;11.64;100.00;101560.97;4835322;29;20526;-77
2022/05/13 01:30:32;;;;;;;9.07;2.85;;;;;;;11.64;100.00;101566.25;4844674;29;20049;-78
2022/05/13 01:33:01;;;;;;;11.23;3.45;;;;;;;11.65;100.00;101560.13;4839017;29;20353;-77
2022/05/13 01:35:29;;;;;;;12.20;3.05;;;;;;;11.65;100.00;101560.13;4853281;29;20428;-77
2022/05/13 01:37:57;;;;;;;12.52;3.00;;;;;;;11.66;100.00;101568.06;4851308;29;20519;-77
2022/05/13 01:40:26;;;;;;;6.22;3.08;;;;;;;11.66;100.00;101560.13;4853329;29;20057;-77
2022/05/13 01:42:54;;;;;;;6.85;2.67;;;;;;;11.66;100.00;101551.31;4832845;29;20049;-77
2022/05/13 01:45:23;;;;;;;6.25;3.15;;;;;;;11.66;100.00;101556.59;4817605;29;20424;-77
2022/05/13 01:47:51;;;;;;;10.10;3.00;;;;;;;11.67;100.00;101555.72;4851777;29;20052;-78
2022/05/13 01:50:22;;;;;;;8.52;2.92;;;;;;;11.67;100.00;101553.97;4807770;29;20411;-77
2022/05/13 01:52:50;;;;;;;8.60;3.58;;;;;;;11.66;100.00;101553.94;4846127;29;20050;-78
2022/05/13 01:55:19;;;;;;;5.05;3.00;;;;;;;11.65;100.00;101545.16;4849565;29;20349;-77
2022/05/13 01:57:48;;;;;;;12.13;4.00;;;;;;;11.65;100.00;101545.16;4834802;29;20057;-77
2022/05/13 02:00:18;;;;;;;11.25;3.47;;;;;;;11.67;100.00;101545.16;4829675;29;20619;-77
2022/05/13 02:05:34;;;;;;;8.23;3.55;;;;;;;11.65;100.00;101542.50;4853100;29;20380;-77
2022/05/13 02:08:02;;;;;;;10.63;3.75;;;;;;;11.64;100.00;101546.00;4844002;29;20068;-78
2022/05/13 02:10:31;;;;;;;9.23;3.25;;;;;;;11.63;100.00;101541.63;4822784;29;20058;-77
2022/05/13 02:12:59;;;;;;;12.75;4.45;;;;;;;11.63;100.00;101538.97;4818465;29;20309;-78
2022/05/13 02:15:28;;;;;;;10.75;3.33;;;;;;;11.61;100.00;101529.28;4831265;29;20042;-77
2022/05/13 02:17:56;;;;;;;9.02;3.50;;;;;;;11.61;100.00;101530.16;4834264;29;20503;-78
2022/05/13 02:20:25;;;;;;;9.52;3.42;;;;;;;11.62;100.00;101526.63;4840311;29;20472;-78
2022/05/13 02:22:53;;;;;;;11.55;3.10;;;;;;;11.63;100.00;101523.13;4846404;29;20045;-79
2022/05/13 02:25:22;;;;;;;15.68;4.05;;;;;;;11.64;100.00;101524.88;4836184;29;20076;-78
2022/05/13 02:27:50;;;;;;;5.85;3.70;;;;;;;11.64;100.00;101514.31;4832747;29;20057;-77
2022/05/13 02:30:20;;;;;;;9.85;4.13;;;;;;;11.65;100.00;101512.59;4817813;29;20041;-78
2022/05/13 02:32:49;;;;;;;9.23;3.33;;;;;;;11.64;100.00;101508.16;4819465;29;20083;-77
2022/05/13 02:35:17;;;;;;;7.95;3.92;;;;;;;11.64;100.00;101510.81;4847670;29;20685;-78
2022/05/13 02:37:46;;;;;;;8.95;4.15;;;;;;;11.63;100.00;101509.06;4818543;29;20400;-77
2022/05/13 02:40:17;;;;;;;14.32;4.00;;;;;;;11.61;100.00;101503.75;4848928;29;20256;-78
2022/05/13 02:42:45;;;;;;;11.95;3.72;;;;;;;11.61;100.00;101493.19;4860909;29;20061;-78
2022/05/13 02:45:14;;;;;;;7.03;3.20;;;;;;;11.63;100.00;101499.38;4828835;29;20320;-77
2022/05/13 02:47:42;;;;;;;14.05;3.83;;;;;;;11.61;100.00;101484.41;4851547;29;20049;-78
2022/05/13 02:50:21;;;;;;;10.93;4.35;;;;;;;11.59;100.00;101492.31;4850641;29;20272;-77
2022/05/13 02:52:52;;;;;;;12.23;4.05;;;;;;;11.57;100.00;101496.69;4850959;29;20060;-78
2022/05/13 02:55:20;;;;;;;13.43;4.15;;;;;;;11.56;100.00;101480.81;4850303;29;20041;-77
2022/05/13 02:57:49;;;;;;;9.93;3.92;;;;;;;11.56;100.00;101486.97;4854875;29;20046;-78
2022/05/13 03:00:17;;;;;;;15.98;4.00;;;;;;;11.55;100.00;101484.31;4855020;29;20380;-78
2022/05/13 03:02:46;;;;;;;11.70;3.80;;;;;;;11.52;100.00;101486.06;4834174;29;20057;-78
2022/05/13 03:05:15;;;;;;;7.70;4.40;;;;;;;11.51;100.00;101491.31;4853751;29;20042;-78
2022/05/13 03:07:46;;;;;;;14.57;4.53;;;;;;;11.51;100.00;101483.41;4855098;29;20053;-77
2022/05/13 03:10:14;;;;;;;14.55;4.97;;;;;;;11.50;100.00;101479.03;4854247;29;20092;-78
2022/05/13 03:12:43;;;;;;;12.23;4.90;;;;;;;11.50;100.00;101479.03;4850895;29;20081;-77
2022/05/13 03:15:13;;;;;;;13.00;4.20;;;;;;;11.49;100.00;101475.50;4854553;29;20608;-79
2022/05/13 03:17:41;;;;;;;15.10;4.40;;;;;;;11.50;100.00;101476.38;4833948;29;20151;-78
2022/05/13 03:20:15;;;;;;;12.70;4.45;;;;;;;11.49;100.00;101459.66;4850198;29;20321;-78
2022/05/13 03:22:51;;;;;;;12.30;4.75;;;;;;;11.51;100.00;101457.00;4835665;29;20546;-78
2022/05/13 03:25:21;;;;;;;13.07;4.45;;;;;;;11.54;100.00;101466.75;4836062;29;20070;-78
2022/05/13 03:27:49;;;;;;;12.50;4.40;;;;;;;11.53;100.00;101465.88;4838089;29;20044;-77
2022/05/13 03:30:21;;;;;;;15.80;4.55;;;;;;;11.53;100.00;101481.69;4854713;29;20046;-77
2022/05/13 03:32:54;;;;;;;11.63;4.78;;;;;;;11.52;100.00;101464.94;4836241;29;20041;-79
2022/05/13 03:35:23;;;;;;;12.60;4.78;;;;;;;11.52;100.00;101478.16;4847515;29;20403;-78
2022/05/13 03:37:51;;;;;;;12.05;4.72;;;;;;;11.51;100.00;101489.59;4851326;29;20344;-79
2022/05/13 03:40:20;;;;;;;19.17;4.80;;;;;;;11.50;100.00;101479.03;4858217;29;20064;-78
2022/05/13 03:42:48;;;;;;;12.57;4.72;;;;;;;11.50;100.00;101479.03;4847271;29;20050;-79
2022/05/13 03:45:18;;;;;;;15.07;5.82;;;;;;;11.48;100.00;101480.75;4836242;29;20274;-77
2022/05/13 03:47:49;;;;;;;18.60;5.33;;;;;;;11.49;100.00;101487.78;4828922;29;20046;-77
2022/05/13 03:50:17;;;;;;;16.08;4.90;;;;;;;11.48;100.00;101489.56;4865429;29;20299;-77
2022/05/13 03:52:46;;;;;;;12.38;5.28;;;;;;;11.48;100.00;101491.31;4855951;29;20060;-78
2022/05/13 03:55:15;;;;;;;16.00;4.97;;;;;;;11.47;100.00;101489.53;4849790;29;20189;-78
2022/05/13 03:57:43;;;;;;;14.95;5.03;;;;;;;11.47;100.00;101493.09;4852044;29;20064;-77
2022/05/13 04:00:13;;;;;;;11.55;4.55;;;;;;;11.47;100.00;101501.00;4849298;29;20049;-78
2022/05/13 04:02:42;;;;;;;15.82;5.63;;;;;;;11.48;100.00;101507.16;4849657;29;20065;-77
2022/05/13 04:10:48;;;;;;;16.92;4.72;;;;;;;11.51;100.00;101515.09;4854757;29;20064;-77
2022/05/13 04:16:04;;;;;;;17.55;5.18;;;;;;;11.52;100.00;101527.41;4821191;29;20076;-78
2022/05/13 04:18:38;;;;;;;18.48;4.45;;;;;;;11.50;100.00;101524.75;4855194;29;20583;-78
2022/05/13 04:21:12;;;;;;;21.38;4.97;;;;;;;11.50;100.00;101518.59;4838409;29;20162;-78
2022/05/13 04:23:43;;;;;;;11.55;3.97;;;;;;;11.50;100.00;101523.88;4854858;29;20052;-77
2022/05/13 04:26:12;;;;;;;14.18;4.90;;;;;;;11.49;100.00;101517.72;4851864;29;20268;-77
2022/05/13 04:28:42;;;;;;;15.63;4.47;;;;;;;11.48;100.00;101526.50;4838972;29;20086;-77
2022/05/13 04:31:12;;;;;;;16.83;4.53;;;;;;;11.49;100.00;101519.47;4849304;29;20516;-77
2022/05/13 04:33:41;;;;;;;23.17;5.38;;;;;;;11.48;100.00;101509.78;4868643;29;20056;-77
2022/05/13 04:36:10;;;;;;;12.07;4.15;;;;;;;11.48;100.00;101513.31;4837195;29;20081;-78
2022/05/13 04:38:38;;;;;;;23.67;5.20;;;;;;;11.48;100.00;101510.66;4840262;29;20399;-78
2022/05/13 04:43:55;;;;;;;17.67;4.57;;;;;;;11.50;100.00;101506.28;4845933;29;20049;-78
2022/05/13 04:46:25;;;;;;;17.30;4.65;;;;;;;11.49;100.00;101515.09;4832804;29;20156;-78
2022/05/13 04:48:53;;;;;;;17.42;5.38;;;;;;;11.50;100.00;101510.69;4838713;29;20048;-78
2022/05/13 04:51:22;;;;;;;14.02;4.32;;;;;;;11.52;100.00;101504.53;4848130;29;20392;-77
2022/05/13 04:53:53;;;;;;;18.25;4.80;;;;;;;11.54;100.00;101503.69;4852180;29;20064;-78
2022/05/13 04:56:23;;;;;;;18.92;5.07;;;;;;;11.55;100.00;101509.00;4855198;29;20414;-78
2022/05/13 04:58:51;;;;;;;18.50;4.95;;;;;;;11.57;100.00;101514.25;4836971;29;20479;-77
2022/05/13 05:01:21;;;;;;;15.45;5.45;;;;;;;11.57;100.00;101515.16;4849513;29;20057;-77
2022/05/13 05:03:50;;;;;;;16.02;5.22;;;;;;;11.58;100.00;101522.19;4854280;29;20387;-77
2022/05/13 05:06:20;;;;;;;18.08;4.75;;;;;;;11.59;100.00;101531.03;4817302;29;20451;-78
2022/05/13 05:08:49;;;;;;;18.10;5.05;;;;;;;11.62;100.00;101539.81;4868517;29;20500;-78
2022/05/13 05:11:18;;;;;;;14.77;4.43;;;;;;;11.64;100.00;101538.09;4825174;29;20061;-79
2022/05/13 05:13:49;;;;;;;19.55;4.95;;;;;;;11.65;100.00;101539.88;4851777;29;20380;-78
2022/05/13 05:16:22;;;;;;;19.27;5.28;;;;;;;11.67;100.00;101543.41;4848564;29;20054;-77
2022/05/13 05:18:51;;;;;;;20.95;5.18;;;;;;;11.69;100.00;101539.03;4853115;29;20045;-77
2022/05/13 05:21:19;;;;;;;15.85;4.80;;;;;;;11.72;100.00;101535.56;4857699;29;20160;-77
2022/05/13 05:23:49;;;;;;;15.15;5.05;;;;;;;11.73;100.00;101542.59;4818287;29;20053;-78
2022/05/13 05:26:18;;;;;;;19.35;5.70;;;;;;;11.78;100.00;101550.56;4854682;29;20057;-78
2022/05/13 05:28:47;;;;;;;11.98;4.68;;;;;;;11.80;100.00;101554.97;4853964;29;20040;-77
2022/05/13 05:31:20;;;;;;;21.02;4.78;;;;;;;11.83;100.00;101554.13;4851828;29;20056;-77
2022/05/13 05:33:49;;;;;;;18.38;6.07;;;;;;;11.84;100.00;101558.53;4871307;29;20064;-78
2022/05/13 05:36:17;;;;;;;18.25;4.93;;;;;;;11.87;100.00;101556.81;4851276;29;20407;-78
2022/05/13 05:38:46;;;;;;;18.63;4.50;;;;;;;11.89;100.00;101560.38;4805718;29;20268;-76
2022/05/13 05:41:14;;;;;;;22.25;4.93;;;;;;;11.92;100.00;101564.78;4854689;29;20399;-78
2022/05/13 05:43:46;;;;;;;16.25;5.30;;;;;;;11.95;100.00;101561.31;4846200;29;20065;-77
2022/05/13 05:46:14;;;;;;;16.95;5.50;;;;;;;11.99;100.00;101564.00;4850802;29;20053;-77
2022/05/13 05:48:43;;;;;;;17.02;5.25;;;;;;;12.05;100.00;101571.97;4845738;29;20344;-77
2022/05/13 05:51:12;;;;;;;14.48;4.63;;;;;;;12.13;100.00;101573.78;4835689;29;20042;-78
2022/05/13 05:59:15;;;;;;;13.60;4.60;;;;;;;12.32;100.00;101575.69;4850047;29;20049;-76
2022/05/13 06:01:44;;;;;;;13.05;3.72;;;;;;;12.41;100.00;101577.53;4846781;29;20042;-77
2022/05/13 06:04:20;;;;;;;15.93;5.25;;;;;;;12.48;100.00;101577.59;4843473;29;20068;-78
2022/05/13 06:06:50;;;;;;;13.40;4.60;;;;;;;12.54;100.00;101576.75;4831940;29;20536;-78
2022/05/13 06:09:18;;;;;;;11.18;4.63;;;;;;;12.57;100.00;101571.50;4818148;29;20270;-77
2022/05/13 06:11:47;;;;;;;16.45;4.90;;;;;;;12.63;100.00;101581.22;4854796;29;20424;-78
2022/05/13 06:14:16;;;;;;;14.45;4.32;;;;;;;12.65;100.00;101576.81;4846853;29;20574;-77
2022/05/13 06:16:46;;;;;;;14.18;4.60;;;;;;;12.66;100.00;101581.22;4832621;29;20053;-77
2022/05/13 06:19:15;;;;;;;13.05;3.88;;;;;;;12.66;100.00;101579.47;4848277;29;20037;-78
2022/05/13 06:21:43;;;;;;;11.80;3.53;;;;;;;12.66;100.00;101581.22;4858730;29;20407;-77
2022/05/13 06:24:12;;;;;;;15.07;3.60;;;;;;;12.66;100.00;101587.41;4817292;29;20077;-77
2022/05/13 06:26:41;;;;;;;9.05;3.25;;;;;;;12.67;100.00;101583.00;4834479;29;20049;-78
2022/05/13 06:29:09;;;;;;;11.85;3.83;;;;;;;12.67;100.00;101594.44;4839531;29;20240;-77
2022/05/13 06:31:38;;;;;;;9.15;2.65;;;;;;;12.67;100.00;101586.53;4845705;29;20045;-77
2022/05/13 06:34:07;;;;;;;7.88;3.03;;;;;;;12.67;100.00;101597.09;4824796;29;20085;-77
2022/05/13 06:36:36;;;;;;;10.73;2.72;;;;;;;12.67;100.00;101596.22;4852880;29;20087;-77
2022/05/13 06:39:07;;;;;;;7.45;2.63;;;;;;;12.68;100.00;101587.41;4831921;29;20067;-77
2022/05/13 06:41:37;;;;;;;;;;;;;;;12.65;100.00;101595.34;4825651;29;20268;-78
2022/05/13 06:44:06;;;;;;;;;;;;;;;12.66;100.00;101599.72;4847133;29;19931;-77
2022/05/13 06:46:37;;;;;;;;;;;;;;;12.68;100.00;101597.97;4836903;29;20152;-77
2022/05/13 06:49:06;;;;;;;;;;;;;;;12.68;100.00;101595.34;4844403;29;19924;-77
2022/05/13 06:51:34;;;;;;;;;;;;;;;12.71;100.00;101607.72;4856129;29;20329;-77
2022/05/13 06:54:07;;;;;;;;;;;;;;;12.72;100.00;101602.44;4845049;29;19928;-77
2022/05/13 06:56:37;;;;;;;;;;;;;;;12.77;100.00;101608.63;4841786;29;20325;-77
2022/05/13 06:59:05;;;;;;;;;;;;;;;12.82;100.00;101608.66;4848537;29;20390;-77
2022/05/13 07:01:40;;;;;;;;;;;;;;;12.89;100.00;101607.78;4844078;29;20133;-77
2022/05/13 07:04:08;;;;;;;;;;;;;;;12.98;100.00;101609.63;4858921;29;19960;-77
2022/05/13 07:06:36;;;;;;;;;;;;;;;13.03;100.00;101611.41;4841114;29;19924;-78
2022/05/13 07:09:05;;;;;;;;;;;;;;;13.12;100.00;101612.31;4824973;29;19924;-77
2022/05/13 07:11:35;;;;;;;;;;;;;;;13.18;100.00;101618.56;4844874;29;20142;-77
2022/05/13 07:14:03;;;;;;;;;;;;;;;13.23;100.00;101613.25;4856771;29;19924;-77
2022/05/13 07:16:31;;;;;;;;;;;;;;;13.35;100.00;101620.44;4850206;29;19935;-77
2022/05/13 07:19:05;;;;;;;;;;;;;;;13.45;100.00;101630.16;4848177;29;19931;-77
2022/05/13 07:21:36;;;;;;;;;;;;;;;13.52;100.00;101624.00;4827772;29;20591;-77
2022/05/13 07:24:04;;;;;;;;;;;;;;;13.61;100.00;101624.06;4844623;29;20389;-77
2022/05/13 07:26:33;;;;;;;;;;;;;;;13.65;100.00;101625.81;4841757;29;19924;-78
2022/05/13 07:30:08;;;;;;;;;;;;;;;13.68;100.00;101619.63;5038066;28;19921;-77
2022/05/13 07:35:27;;;;;;;9.90;2.35;;;;;;;13.63;100.00;101629.34;5078446;27;20362;-78
2022/05/13 07:37:56;;;;;;;7.25;2.63;;;;;;;13.52;100.00;101639.03;5060465;28;20407;-78
2022/05/13 07:43:12;;;;;;;8.35;2.10;;;;;;;13.64;100.00;101624.03;5026502;28;20041;-78
2022/05/13 07:45:40;;;;;;;8.32;2.70;;;;;;;13.86;100.00;101628.53;5008043;28;20041;-77
2022/05/13 07:48:09;;;;;;;8.20;2.35;;;;;;;14.02;100.00;101619.72;5012024;28;20060;-77
2022/05/13 07:50:38;;;;;;;5.80;2.30;;;;;;;14.16;100.00;101623.28;5004241;28;20262;-77
2022/05/13 07:53:06;;;;;;;11.30;2.30;;;;;;;14.35;100.00;101629.47;5010199;28;20041;-78
2022/05/13 07:55:35;;;;;;;9.75;2.17;;;;;;;14.48;98.87;101629.44;5034261;28;20045;-78
2022/05/13 07:58:04;;;;;;;5.65;2.13;;;;;;;14.41;98.24;101632.09;5012904;28;20050;-77
2022/05/13 08:00:33;;;;;;;9.80;2.50;;;;;;;14.29;98.45;101631.22;5022813;28;20144;-78
2022/05/13 08:03:04;;;;;;;8.70;2.20;;;;;;;14.16;98.16;101633.88;5019861;28;20056;-78
2022/05/13 08:05:42;;;;;;;6.50;2.35;;;;;;;14.24;98.18;101639.19;5007726;28;20458;-78
2022/05/13 08:08:16;;;;;;;6.60;2.40;;;;;;;14.36;98.13;101640.94;5004294;28;20041;-78
2022/05/13 08:10:52;;;;;;;7.47;2.10;;;;;;;14.40;98.82;101640.06;5001722;28;20046;-77
2022/05/13 08:13:22;;;;;;;9.60;2.70;;;;;;;14.51;97.94;101634.75;4999154;28;20245;-77
2022/05/13 08:15:51;;;;;;;9.15;2.13;;;;;;;14.64;96.61;101641.84;5007162;28;20031;-78
2022/05/13 08:18:21;;;;;;;4.95;1.70;;;;;;;14.77;94.82;101645.38;5010307;28;20220;-78
2022/05/13 08:20:51;;;;;;;;;;;;;;;14.96;91.69;101655.06;5009707;28;20832;-78
2022/05/13 08:23:20;;;;;;;6.55;2.20;;;;;;;15.16;95.54;101643.50;4995106;28;20378;-79
2022/05/13 08:25:49;;;;;;;7.38;2.67;;;;;;;15.09;93.14;101655.94;4996389;28;20045;-78
2022/05/13 08:28:23;;;;;;;7.72;1.90;;;;;;;14.86;92.13;101663.03;4994592;28;20825;-78
2022/05/13 08:30:52;;;;;;;9.93;1.50;;;;;;;14.62;92.70;101660.41;4997896;28;20057;-77
2022/05/13 08:33:20;;;;;;;5.15;1.55;;;;;;;14.38;93.88;101666.56;4976170;28;20395;-78
2022/05/13 08:35:52;;;;;;;8.40;2.30;;;;;;;14.29;94.99;101670.97;5016187;28;20510;-78
2022/05/13 08:38:24;;;;;;;5.32;2.08;;;;;;;14.27;96.32;101668.31;4993895;28;20389;-78
2022/05/13 08:41:13;;;;;;;9.00;2.58;;;;;;;14.28;96.73;101659.50;5000087;28;20053;-78
2022/05/13 08:43:52;;;;;;;7.20;2.33;;;;;;;14.28;96.90;101678.06;4984663;28;20058;-78
2022/05/13 08:46:33;;;;;;;8.20;2.33;;;;;;;14.21;96.42;101674.53;4990971;28;20279;-78
2022/05/13 08:49:20;;;;;;;7.05;2.33;;;;;;;14.10;97.03;101678.03;4985973;28;20518;-79
2022/05/13 08:55:40;;;;;;;11.77;2.28;;;;;;;13.85;99.24;101693.84;4978251;28;20050;-78
2022/05/13 08:58:15;;;;;;;5.57;2.65;;;;;;;13.84;99.82;101689.47;4957482;28;20350;-78
2022/05/13 09:00:53;;;;;;;9.13;2.40;;;;;;;14.03;100.00;101690.38;4969105;28;20058;-78
2022/05/13 09:03:49;;;;;;;10.15;2.50;;;;;;;14.33;100.00;101691.31;5010561;28;20045;-77
2022/05/13 09:06:39;;;;;;;10.63;2.10;;;;;;;14.39;96.25;101688.69;4977595;28;20539;-78
2022/05/13 09:09:11;;;;;;;7.63;2.40;;;;;;;14.28;96.62;101701.91;4984324;28;20045;-78
2022/05/13 09:11:58;;;;;;;7.28;2.17;;;;;;;14.16;96.21;101693.97;4990327;28;20034;-79
2022/05/13 09:14:30;;;;;;;6.55;2.42;;;;;;;14.17;98.04;101693.06;4974220;28;20259;-79
2022/05/13 09:17:17;;;;;;;9.45;2.60;;;;;;;14.29;97.50;101693.09;4996354;28;20042;-78
2022/05/13 09:19:57;;;;;;;5.57;2.13;;;;;;;14.35;97.27;101693.09;4986317;28;20380;-77
2022/05/13 09:22:51;;;;;;;10.50;2.08;;;;;;;14.42;96.02;101694.88;4995855;28;20539;-77
2022/05/13 09:25:23;;;;;;;5.22;1.80;;;;;;;14.47;96.51;101696.63;4967030;28;20731;-79
2022/05/13 09:28:05;;;;;;;8.10;2.58;;;;;;;14.52;95.63;101700.19;4997808;28;20432;-78
2022/05/13 09:30:37;;;;;;;6.70;1.65;;;;;;;14.49;94.83;101705.47;4982760;28;20427;-78
2022/05/13 09:33:25;;;;;;;6.75;1.88;;;;;;;14.43;93.92;101717.84;4991063;28;20407;-77
2022/05/13 09:36:30;;;;;;;6.00;1.92;;;;;;;14.35;94.94;101716.06;4987695;28;20500;-77
2022/05/13 09:39:25;;;;;;;6.35;2.70;;;;;;;14.29;95.82;101724.91;4989499;28;20578;-79
2022/05/13 09:42:19;;;;;;;5.93;2.03;;;;;;;14.43;96.53;101723.13;4982297;28;20042;-78
2022/05/13 09:44:48;;;;;;;3.13;1.60;;;;;;;14.60;94.84;101715.22;4980703;28;20407;-78
2022/05/13 09:47:30;;;;;;;4.28;1.73;;;;;;;14.70;92.59;101725.84;4971489;28;20549;-78
2022/05/13 09:50:31;;;;;;;7.78;2.08;;;;;;;14.70;92.20;101721.41;4984908;28;21171;-79
2022/05/13 09:53:12;;;;;;;5.13;1.77;;;;;;;14.72;91.46;101730.25;5000224;28;20117;-78
2022/05/13 09:55:42;;;;;;;7.50;2.05;;;;;;;14.69;91.63;101714.38;4991397;28;20511;-79
2022/05/13 09:58:17;;;;;;;;;;;;;;;14.66;89.49;101727.63;4980953;28;20268;-78
2022/05/13 10:00:49;;;;;;;7.80;1.77;;;;;;;14.57;89.32;101719.66;5016759;28;19925;-78
2022/05/13 10:03:27;;;;;;;6.05;1.83;;;;;;;14.50;89.22;101726.69;4976132;28;20265;-79
2022/05/13 10:06:15;;;;;;;5.47;1.10;;;;;;;14.41;90.28;101729.34;4999443;28;20057;-78
2022/05/13 10:14:41;;;;;;;3.88;1.80;;;;;;;14.28;91.81;101722.25;4997169;28;20053;-78
2022/05/13 10:17:26;;;;;;;8.00;1.85;;;;;;;14.26;91.69;101722.25;4965842;28;20406;-78
2022/05/13 10:20:27;;;;;;;5.78;1.70;;;;;;;14.29;92.56;101724.00;4993836;28;20590;-78
2022/05/13 10:23:22;;;;;;;10.88;1.83;;;;;;;14.33;92.64;101729.34;5000235;28;20050;-79
2022/05/13 10:25:50;;;;;;;7.95;1.55;;;;;;;14.43;93.05;101732.88;4990395;28;20054;-78
2022/05/13 10:28:22;;;;;;;6.97;2.25;;;;;;;14.59;93.08;101734.69;4979522;28;20652;-78
2022/05/13 10:31:00;;;;;;;3.50;1.52;;;;;;;14.90;92.91;101736.47;4996198;28;20045;-80
2022/05/13 10:33:37;;;;;;;4.75;1.88;;;;;;;15.30;90.31;101731.09;4978001;28;20058;-78
2022/05/13 10:36:12;;;;;;;7.68;1.98;;;;;;;15.64;89.68;101726.56;4981812;28;20042;-78
2022/05/13 10:39:05;;;;;;;8.98;2.40;;;;;;;15.84;88.04;101733.59;4988324;28;20054;-80
2022/05/13 10:41:48;;;;;;;8.10;2.05;;;;;;;15.85;86.92;101732.72;4969212;28;20380;-78
2022/05/13 10:44:23;;;;;;;5.38;1.83;;;;;;;15.76;87.57;101733.63;4989463;28;20292;-77
2022/05/13 10:46:55;;;;;;;4.32;1.85;;;;;;;15.70;87.84;101744.25;4995571;28;20046;-78
2022/05/13 10:49:39;;;;;;;4.78;2.00;;;;;;;15.71;87.35;101740.72;4978731;28;20346;-77
2022/05/13 10:52:27;;;;;;;6.30;2.10;;;;;;;15.71;87.35;101736.28;4982795;28;20073;-78
2022/05/13 10:55:03;;;;;;;5.38;2.22;;;;;;;15.73;87.81;101739.84;4988398;28;20053;-77
2022/05/13 10:57:43;;;;;;;5.63;2.05;;;;;;;15.68;86.05;101736.28;4970694;28;20396;-78
2022/05/13 11:00:19;;;;;;;9.93;1.67;;;;;;;15.70;86.49;101739.81;4977874;28;20035;-77
2022/05/13 11:02:47;;;;;;;5.40;2.40;;;;;;;15.70;86.52;101749.56;4980956;28;20046;-77
2022/05/13 11:05:26;;;;;;;7.10;2.42;;;;;;;15.69;84.73;101738.06;4959666;28;20054;-77
2022/05/13 11:08:01;;;;;;;5.15;2.22;;;;;;;15.65;85.10;101752.25;4985764;28;20042;-78
2022/05/13 11:10:55;;;;;;;4.63;2.03;;;;;;;15.58;84.58;101740.75;4988379;28;20046;-79
2022/05/13 11:14:01;;;;;;;7.97;1.95;;;;;;;15.49;84.89;101748.75;5006416;28;20060;-79
2022/05/13 11:16:50;;;;;;;9.32;1.70;;;;;;;15.46;85.61;101759.38;4994896;28;20054;-79
2022/05/13 11:19:40;;;;;;;8.88;2.00;;;;;;;15.48;85.56;101754.97;4974630;28;22795;-78
2022/05/13 11:22:22;;;;;;;7.82;2.08;;;;;;;15.47;86.72;101763.81;5009294;28;20149;-78
2022/05/13 11:28:02;;;;;;;3.95;1.50;;;;;;;15.36;86.25;101762.94;5008766;28;20045;-78
2022/05/13 11:30:42;;;;;;;6.85;1.75;;;;;;;15.35;86.05;101758.53;4986150;28;20057;-77
2022/05/13 11:33:35;;;;;;;3.63;1.80;;;;;;;15.34;85.50;101762.94;4983712;28;20283;-77
2022/05/13 11:36:25;;;;;;;6.70;1.88;;;;;;;15.28;85.33;101767.41;4982038;28;20046;-78
2022/05/13 11:39:02;;;;;;;2.95;1.80;;;;;;;15.21;85.39;101771.81;4994498;28;20060;-77
2022/05/13 11:41:47;;;;;;;5.43;1.95;;;;;;;15.20;85.53;101781.56;4994074;28;20068;-79
2022/05/13 11:45:01;;;;;;;3.65;2.17;;;;;;;15.21;86.05;101777.13;5003599;28;20045;-78
2022/05/13 11:47:56;;;;;;;6.10;2.15;;;;;;;15.30;86.41;101768.28;4985417;28;20443;-77
2022/05/13 11:50:28;;;;;;;8.93;2.30;;;;;;;15.40;86.46;101767.34;4985865;28;20065;-79
2022/05/13 11:52:59;;;;;;;5.57;1.92;;;;;;;15.49;85.71;101766.47;4979256;28;20073;-77
2022/05/13 11:55:46;;;;;;;8.85;2.88;;;;;;;15.54;85.11;101768.22;5002950;28;20097;-79
2022/05/13 11:58:46;;;;;;;6.25;2.40;;;;;;;15.54;84.45;101776.19;4985099;28;20045;-78
2022/05/13 12:01:37;;;;;;;9.52;2.47;;;;;;;15.59;82.88;101781.47;5010972;28;20350;-84
2022/05/13 12:04:13;;;;;;;4.35;1.85;;;;;;;15.59;82.85;101773.50;4984327;28;20526;-77
2022/05/13 12:06:51;;;;;;;6.85;2.50;;;;;;;15.70;82.57;101774.38;5004261;28;20049;-79
2022/05/13 12:09:31;;;;;;;7.72;2.42;;;;;;;15.79;83.54;101762.84;4984501;28;20282;-78
2022/05/13 12:12:37;;;;;;;7.80;2.25;;;;;;;15.85;82.59;101760.16;5001831;28;20104;-85
2022/05/13 12:15:26;;;;;;;8.75;2.08;;;;;;;15.87;83.44;101757.50;5005466;28;20049;-86
2022/05/13 12:18:28;;;;;;;6.20;2.35;;;;;;;15.82;82.96;101769.94;5012331;28;20054;-84
2022/05/13 12:21:22;;;;;;;6.20;2.70;;;;;;;15.73;85.17;101776.16;5031028;28;20049;-85
2022/05/13 12:24:03;;;;;;;8.90;2.50;;;;;;;15.70;85.92;101778.81;5010610;28;20442;-86
2022/05/13 12:26:51;;;;;;;6.50;2.85;;;;;;;15.78;85.41;101769.06;4995722;28;20462;-85
2022/05/13 12:29:32;;;;;;;6.78;2.00;;;;;;;15.81;85.38;101778.81;5008142;28;20064;-85
2022/05/13 12:32:00;;;;;;;10.05;2.90;;;;;;;15.85;86.40;101767.28;4997870;28;20061;-79
2022/05/13 12:37:41;;;;;;;11.55;2.65;;;;;;;15.82;85.14;101778.78;4974260;28;20049;-78